createdAt,value
2023-07-20T00:03:26.299Z,99691.53
2023-07-20T00:08:28.676Z,99673.87
2023-07-20T00:13:30.818Z,99683.56
2023-07-20T00:18:33.040Z,99704.84
2023-07-20T00:23:36.469Z,99699.13
2023-07-20T00:28:39.015Z,99674.09
2023-07-20T00:33:41.159Z,99678.72
2023-07-20T00:38:43.873Z,99677.78
2023-07-20T00:43:45.977Z,99674.91
2023-07-20T00:48:48.121Z,99685.09
2023-07-20T00:53:50.598Z,99684.47
2023-07-20T00:58:53.837Z,99669.28
2023-07-20T01:03:55.977Z,99655.09
2023-07-20T01:09:14.537Z,99651.78
2023-07-20T01:14:18.013Z,99661.84
2023-07-20T01:19:20.241Z,99644.22
2023-07-20T01:24:25.620Z,99648.28
2023-07-20T01:30:05.775Z,99648.28
2023-07-20T01:35:09.409Z,99655.97
2023-07-20T01:40:12.779Z,99648.63
2023-07-20T01:45:15.176Z,99654.00
2023-07-20T01:50:18.669Z,99663.91
2023-07-20T01:55:20.785Z,99663.69
2023-07-20T02:00:25.213Z,99670.91
2023-07-20T02:05:27.601Z,99673.63
2023-07-20T02:10:29.854Z,99678.78
2023-07-20T02:15:31.998Z,99685.66
2023-07-20T02:20:34.105Z,99689.34
2023-07-20T02:25:36.277Z,99695.03
2023-07-20T02:30:41.284Z,99687.34
2023-07-20T02:35:43.465Z,99695.69
2023-07-20T02:40:45.607Z,99698.84
2023-07-20T02:45:47.829Z,99692.44
2023-07-20T02:50:49.997Z,99703.66
2023-07-20T02:55:52.156Z,99700.03
2023-07-20T03:00:54.344Z,99705.69
2023-07-20T03:05:58.702Z,99709.94
2023-07-20T03:11:00.882Z,99712.88
2023-07-20T03:16:03.326Z,99722.28
2023-07-20T03:21:09.620Z,99722.03
2023-07-20T03:26:11.896Z,99727.06
2023-07-20T03:31:14.299Z,99735.41
2023-07-20T03:36:16.474Z,99746.75
2023-07-20T03:41:18.946Z,99746.69
2023-07-20T03:46:21.584Z,99744.03
2023-07-20T03:51:24.051Z,99751.06
2023-07-20T03:56:26.151Z,99756.19
2023-07-20T04:01:28.337Z,99771.34
2023-07-20T04:06:30.604Z,99768.91
2023-07-20T04:11:32.814Z,99765.75
2023-07-20T04:16:35.170Z,99760.00
2023-07-20T04:21:44.605Z,99761.25
2023-07-20T04:26:46.780Z,99757.06
2023-07-20T04:31:48.997Z,99749.13
2023-07-20T04:36:51.163Z,99737.78
2023-07-20T04:41:53.338Z,99752.94
2023-07-20T04:46:55.604Z,99748.25
2023-07-20T04:51:58.164Z,99754.41
2023-07-20T04:57:00.510Z,99752.03
2023-07-20T05:02:02.741Z,99745.97
2023-07-20T05:07:05.226Z,99755.44
2023-07-20T05:12:08.573Z,99755.56
2023-07-20T05:17:11.282Z,99762.84
2023-07-20T05:22:15.179Z,99760.81
2023-07-20T05:27:17.826Z,99768.66
2023-07-20T05:32:20.889Z,99763.88
2023-07-20T05:37:23.205Z,99773.13
2023-07-20T05:42:25.478Z,99755.50
2023-07-20T05:47:27.680Z,99768.56
2023-07-20T05:52:29.925Z,99779.56
2023-07-20T05:57:32.266Z,99782.13
2023-07-20T06:02:34.609Z,99777.53
2023-07-20T06:07:39.951Z,99781.63
2023-07-20T06:12:42.305Z,99784.12
2023-07-20T06:17:44.476Z,99786.59
2023-07-20T06:22:47.041Z,99800.56
2023-07-20T06:27:52.543Z,99800.94
2023-07-20T06:32:54.900Z,99802.59
2023-07-20T06:37:57.165Z,99804.41
2023-07-20T06:48:04.954Z,99813.34
2023-07-20T06:53:07.187Z,99823.03
2023-07-20T06:58:09.657Z,99825.87
2023-07-20T07:03:12.046Z,99847.84
2023-07-20T07:08:14.356Z,99842.78
2023-07-20T07:13:18.286Z,99837.38
2023-07-20T07:18:21.840Z,99852.59
2023-07-20T07:23:24.103Z,99852.06
2023-07-20T07:28:26.271Z,99854.84
2023-07-20T07:33:28.418Z,99849.37
2023-07-20T07:38:49.337Z,99862.94
2023-07-20T07:43:52.966Z,99861.34
2023-07-20T07:48:56.569Z,99867.91
2023-07-20T07:53:58.738Z,99869.53
2023-07-20T07:59:01.149Z,99866.22
2023-07-20T08:04:05.021Z,99846.38
2023-07-20T08:09:07.262Z,99857.44
2023-07-20T08:14:09.428Z,99859.06
2023-07-20T08:19:11.713Z,99858.03
2023-07-20T08:24:14.028Z,99870.16
2023-07-20T08:29:16.415Z,99876.25
2023-07-20T08:34:29.737Z,99865.84
2023-07-20T08:39:33.514Z,99867.59
2023-07-20T08:44:37.830Z,99862.28
2023-07-20T08:49:40.705Z,99863.59
2023-07-20T08:54:42.890Z,99870.94
2023-07-20T08:59:45.817Z,99892.22
2023-07-20T09:04:47.982Z,99884.25
2023-07-20T09:09:50.164Z,99902.03
2023-07-20T09:14:52.286Z,99892.50
2023-07-20T09:19:55.684Z,99902.59
2023-07-20T09:24:59.142Z,99910.13
2023-07-20T09:30:01.443Z,99901.00
2023-07-20T09:45:17.671Z,99891.88
2023-07-20T09:55:31.287Z,99888.16
2023-07-20T10:05:47.485Z,99878.03
2023-07-20T10:10:50.317Z,99876.72
2023-07-20T10:15:56.225Z,99895.22
2023-07-20T10:26:07.487Z,99886.31
2023-07-20T10:31:11.641Z,99876.44
2023-07-20T10:36:14.037Z,99886.16
2023-07-20T10:41:30.018Z,99886.16
2023-07-20T10:46:39.353Z,99865.56
2023-07-20T10:51:49.910Z,99868.75
2023-07-20T10:56:52.369Z,99870.00
2023-07-20T11:02:01.415Z,99885.66
2023-07-20T11:07:03.854Z,99881.03
2023-07-20T11:12:14.912Z,99882.72
2023-07-20T11:17:21.357Z,99886.87
2023-07-20T11:22:23.852Z,99870.50
2023-07-20T11:27:25.997Z,99868.78
2023-07-20T11:32:28.216Z,99870.22
2023-07-20T11:37:31.918Z,99864.09
2023-07-20T11:47:45.819Z,99880.78
2023-07-20T11:52:48.451Z,99866.41
2023-07-20T11:58:06.871Z,99873.84
2023-07-20T12:03:12.375Z,99861.91
2023-07-20T12:08:15.371Z,99842.47
2023-07-20T12:13:17.533Z,99822.06
2023-07-20T12:18:19.752Z,99854.72
2023-07-20T12:23:22.016Z,99838.63
2023-07-20T12:28:24.210Z,99834.72
2023-07-20T12:33:26.452Z,99833.37
2023-07-20T12:38:34.493Z,99836.28
2023-07-20T12:43:36.770Z,99847.63
2023-07-20T12:48:39.191Z,99833.50
2023-07-20T12:53:41.441Z,99845.72
2023-07-20T12:58:43.679Z,99826.44
2023-07-20T13:08:52.197Z,99828.72
2023-07-20T13:13:54.501Z,99825.44
2023-07-20T13:18:57.089Z,99823.75
2023-07-20T13:23:59.588Z,99836.03
2023-07-20T13:29:01.850Z,99824.19
2023-07-20T13:34:04.389Z,99812.59
2023-07-20T13:39:06.777Z,99814.12
2023-07-20T13:44:09.058Z,99822.62
2023-07-20T13:49:13.451Z,99817.50
2023-07-20T13:59:21.453Z,99817.72
2023-07-20T14:04:23.894Z,99801.47
2023-07-20T14:09:26.079Z,99805.00
2023-07-20T14:14:28.250Z,99815.19
2023-07-20T14:19:30.409Z,99816.63
2023-07-20T14:24:32.628Z,99817.56
2023-07-20T14:29:37.680Z,99806.41
2023-07-20T14:34:40.639Z,99799.97
2023-07-20T14:39:42.782Z,99813.75
2023-07-20T14:44:46.225Z,99826.69
2023-07-20T14:49:49.534Z,99812.53
2023-07-20T14:54:51.641Z,99802.47
2023-07-20T14:59:53.785Z,99816.41
2023-07-20T15:04:56.977Z,99808.66
2023-07-20T15:09:59.222Z,99806.47
2023-07-20T15:15:08.775Z,99803.56
2023-07-20T15:20:13.735Z,99806.03
2023-07-20T15:25:16.817Z,99809.31
2023-07-20T15:35:25.272Z,99819.50
2023-07-20T15:40:27.458Z,99801.19
2023-07-20T15:45:31.115Z,99807.41
2023-07-20T15:50:33.338Z,99818.25
2023-07-20T15:55:36.233Z,99804.69
2023-07-20T16:00:38.882Z,99814.25
2023-07-20T16:05:41.214Z,99810.94
2023-07-20T16:10:43.427Z,99819.53
2023-07-20T16:20:50.767Z,99808.69
2023-07-20T16:25:53.378Z,99808.88
2023-07-20T16:30:58.551Z,99816.16
2023-07-20T16:36:00.758Z,99823.94
2023-07-20T16:41:02.910Z,99830.66
2023-07-20T16:52:05.254Z,99830.06
2023-07-20T16:57:09.600Z,99839.09
2023-07-20T17:02:15.550Z,99826.47
2023-07-20T17:07:17.757Z,99816.88
2023-07-20T17:12:19.985Z,99824.38
2023-07-20T17:17:24.330Z,99819.91
2023-07-20T17:22:26.686Z,99814.41
2023-07-20T17:27:29.044Z,99828.88
2023-07-20T17:32:31.273Z,99833.03
2023-07-20T17:47:49.995Z,99850.56
2023-07-20T17:52:52.443Z,99860.28
2023-07-20T17:57:54.582Z,99852.22
2023-07-20T18:02:59.416Z,99867.53
2023-07-20T18:08:01.756Z,99861.84
2023-07-20T18:13:04.922Z,99866.69
2023-07-20T18:18:08.173Z,99858.16
2023-07-20T18:23:10.447Z,99865.84
2023-07-20T18:28:12.707Z,99868.94
2023-07-20T18:33:14.896Z,99872.50
2023-07-20T18:38:17.199Z,99875.59
2023-07-20T18:43:19.523Z,99872.53
2023-07-20T18:48:21.931Z,99882.50
2023-07-20T18:53:24.093Z,99883.72
2023-07-20T18:58:26.258Z,99887.16
2023-07-20T19:03:28.694Z,99897.47
2023-07-20T19:08:31.704Z,99905.78
2023-07-20T19:13:34.495Z,99913.34
2023-07-20T19:18:40.636Z,99918.53
2023-07-20T19:23:42.974Z,99935.22
2023-07-20T19:28:46.672Z,99942.84
2023-07-20T19:33:50.801Z,99959.34
2023-07-20T19:38:53.200Z,99960.59
2023-07-20T19:43:55.555Z,99960.81
2023-07-20T19:49:05.796Z,99966.03
2023-07-20T19:59:15.200Z,99978.84
2023-07-20T20:09:26.170Z,99990.25
2023-07-20T20:14:29.013Z,99991.50
2023-07-20T20:19:31.227Z,99993.16
2023-07-20T20:24:33.592Z,99986.56
2023-07-20T20:29:36.624Z,99984.22
2023-07-20T20:34:38.856Z,99989.53
2023-07-20T20:39:41.451Z,99996.25
2023-07-20T20:44:43.642Z,99995.63
2023-07-20T20:49:50.698Z,99993.44
2023-07-20T20:54:53.041Z,99992.59
2023-07-20T20:59:55.223Z,100001.44
2023-07-20T21:04:58.112Z,100005.94
2023-07-20T21:10:00.250Z,99996.91
2023-07-20T21:15:06.496Z,100001.91
2023-07-20T21:20:09.795Z,100003.66
2023-07-20T21:25:12.032Z,100001.84
2023-07-20T21:30:14.320Z,100007.00
2023-07-20T21:35:16.613Z,99999.50
2023-07-20T21:40:18.948Z,100008.50
2023-07-20T21:45:24.231Z,100011.03
2023-07-20T21:50:26.552Z,100006.41
2023-07-20T21:55:30.024Z,100019.22
2023-07-20T22:00:32.199Z,100013.97
2023-07-20T22:05:34.579Z,100013.28
2023-07-20T22:10:36.783Z,100011.44
2023-07-20T22:15:38.946Z,100024.88
2023-07-20T22:20:41.103Z,100028.94
2023-07-20T22:25:43.299Z,100031.88
2023-07-20T22:30:45.924Z,100035.53
2023-07-20T22:35:48.438Z,100036.66
2023-07-20T22:40:50.592Z,100045.22
2023-07-20T22:45:53.859Z,100044.06
2023-07-20T22:50:59.860Z,100044.19
2023-07-20T22:56:02.489Z,100053.72
2023-07-20T23:01:12.058Z,100045.59
2023-07-20T23:06:14.255Z,100043.06
2023-07-20T23:11:17.679Z,100051.34
2023-07-20T23:16:20.418Z,100047.59
2023-07-20T23:21:22.615Z,100054.94
2023-07-20T23:26:25.192Z,100056.56
2023-07-20T23:31:28.325Z,100045.38
2023-07-20T23:36:30.645Z,100040.19
2023-07-20T23:41:33.273Z,100053.91
2023-07-20T23:46:35.462Z,100054.44
2023-07-20T23:51:38.003Z,100057.91
2023-07-20T23:56:40.293Z,100058.94
